Private Wetterstation Wechselburg
Wetterdaten: Woche 28.08.23 - 03.09.23 (KW35)
Datum Zeit Temp. +2m Bodentemp. Temp.+5cm Temp. Wind Windchill X Diff Temp. Feuchte +2m Feuchte +5cm Luftdruck Regen Wind Richtung Sonnenschein Taupunkt Windchill Windben
28.08.2023 00:00 15,9 C 19,8 C 15,8 C 15,7 C 15,3 C 0,0 C 85 % 82 % 1009,0 hPa 0,0 l/m 0,0 km/h (0 Bft) N 0,00 h 13,4 C 15,3 C 0,2 km/h (0 Bft)
28.08.2023 01:00 15,8 C 19,7 C 15,6 C 15,6 C 15,1 C 0,0 C 85 % 80 % 1009,2 hPa 0,0 l/m 0,0 km/h (0 Bft) N 0,00 h 13,3 C 15,1 C 0,0 km/h (0 Bft)
28.08.2023 02:00 15,6 C 19,5 C 15,4 C 15,4 C 14,9 C 0,0 C 85 % 79 % 1009,2 hPa 0,0 l/m 0,0 km/h (0 Bft) N 0,00 h 13,0 C 14,9 C 0,0 km/h (0 Bft)
28.08.2023 03:00 15,0 C 19,7 C 14,6 C 14,7 C 14,1 C 0,0 C 85 % 82 % 1009,3 hPa 0,0 l/m 0,0 km/h (0 Bft) N 0,00 h 12,5 C 14,1 C 0,0 km/h (0 Bft)
28.08.2023 04:00 14,2 C 19,7 C 13,6 C 13,8 C 13,0 C 0,0 C 86 % 84 % 1009,4 hPa 0,0 l/m 0,0 km/h (0 Bft) N 0,00 h 11,8 C 13,0 C 0,0 km/h (0 Bft)
28.08.2023 05:00 13,9 C 19,6 C 13,7 C 13,6 C 13,1 C 0,0 C 87 % 90 % 1009,8 hPa 0,0 l/m 0,0 km/h (0 Bft) N 0,00 h 11,7 C 13,1 C 0,0 km/h (0 Bft)
28.08.2023 06:00 13,6 C 19,4 C 13,5 C 13,3 C 12,8 C 0,0 C 87 % 89 % 1010,0 hPa 0,0 l/m 0,0 km/h (0 Bft) N 0,00 h 11,5 C 12,8 C 0,0 km/h (0 Bft)
28.08.2023 07:00 13,5 C 19,3 C 13,8 C 13,6 C 13,5 C 0,1 C 88 % 86 % 1010,1 hPa 0,0 l/m 0,0 km/h (0 Bft) N 0,00 h 11,6 C 13,5 C 0,0 km/h (0 Bft)
28.08.2023 08:00 13,8 C 19,1 C 14,5 C 14,8 C 14,8 C 1,0 C 88 % 82 % 1010,3 hPa 0,0 l/m 0,0 km/h (0 Bft) N 0,00 h 11,8 C 14,8 C 0,0 km/h (0 Bft)
28.08.2023 09:00 14,6 C 18,8 C 15,0 C 15,9 C 15,9 C 1,3 C 86 % 76 % 1010,3 hPa 0,0 l/m 0,0 km/h (0 Bft) N 0,00 h 12,3 C 15,9 C 0,0 km/h (0 Bft)
28.08.2023 10:00 15,2 C 18,7 C 15,2 C 16,6 C 16,6 C 1,4 C 81 % 72 % 1009,9 hPa 0,0 l/m 0,0 km/h (0 Bft) N 0,00 h 11,9 C 16,6 C 0,0 km/h (0 Bft)
28.08.2023 11:00 16,0 C 18,6 C 15,9 C 18,0 C 18,0 C 2,1 C 78 % 70 % 1010,3 hPa 0,0 l/m 0,0 km/h (0 Bft) N 0,00 h 12,1 C 18,0 C 0,0 km/h (0 Bft)
28.08.2023 12:00 16,4 C 18,6 C 16,0 C 18,0 C 18,0 C 1,5 C 75 % 69 % 1010,4 hPa 0,0 l/m 0,0 km/h (0 Bft) N 0,00 h 12,0 C 18,0 C 0,0 km/h (0 Bft)
28.08.2023 13:00 16,2 C 18,5 C 15,4 C 16,4 C 16,3 C 0,3 C 74 % 70 % 1011,1 hPa 0,0 l/m 0,0 km/h (0 Bft) N 0,00 h 11,6 C 16,3 C 0,0 km/h (0 Bft)
28.08.2023 14:00 16,0 C 18,9 C 14,5 C 15,9 C 15,5 C 0,1 C 78 % 87 % 1010,2 hPa 1,4 l/m 0,0 km/h (0 Bft) N 0,00 h 12,3 C 15,5 C 0,0 km/h (0 Bft)
28.08.2023 15:00 16,2 C 18,9 C 14,8 C 18,3 C 18,3 C 2,1 C 79 % 86 % 1009,7 hPa 0,0 l/m 0,0 km/h (0 Bft) N 0,00 h 12,5 C 18,3 C 0,0 km/h (0 Bft)
28.08.2023 16:00 16,3 C 18,8 C 15,0 C 17,3 C 17,3 C 0,9 C 78 % 83 % 1009,9 hPa 0,0 l/m 0,0 km/h (0 Bft) N 0,00 h 12,5 C 17,3 C 0,0 km/h (0 Bft)
28.08.2023 17:00 16,2 C 18,7 C 14,9 C 16,4 C 16,4 C 0,2 C 78 % 83 % 1009,8 hPa 0,0 l/m 0,0 km/h (0 Bft) N 0,00 h 12,4 C 16,4 C 0,0 km/h (0 Bft)
28.08.2023 18:00 15,6 C 18,8 C 14,6 C 15,4 C 14,9 C 0,0 C 80 % 87 % 1009,8 hPa 0,0 l/m 0,0 km/h (0 Bft) N 0,00 h 12,2 C 14,9 C 0,0 km/h (0 Bft)
28.08.2023 19:00 15,1 C 18,8 C 14,4 C 14,9 C 14,4 C 0,0 C 83 % 90 % 1009,7 hPa 0,0 l/m 0,0 km/h (0 Bft) N 0,00 h 12,2 C 14,4 C 0,0 km/h (0 Bft)
28.08.2023 20:00 14,7 C 18,8 C 14,3 C 14,5 C 14,0 C 0,0 C 84 % 90 % 1010,1 hPa 0,0 l/m 0,0 km/h (0 Bft) N 0,00 h 12,1 C 14,0 C 0,0 km/h (0 Bft)
28.08.2023 21:00 14,2 C 18,8 C 13,9 C 14,1 C 13,7 C 0,0 C 86 % 90 % 1009,8 hPa 0,0 l/m 0,0 km/h (0 Bft) N 0,00 h 11,9 C 13,7 C 0,0 km/h (0 Bft)
28.08.2023 22:00 14,1 C 18,7 C 13,8 C 13,9 C 13,5 C 0,0 C 86 % 90 % 1009,8 hPa 0,0 l/m 0,0 km/h (0 Bft) N 0,00 h 11,8 C 13,5 C 0,0 km/h (0 Bft)
28.08.2023 23:00 13,9 C 18,6 C 13,6 C 13,7 C 13,4 C 0,0 C 87 % 90 % 1009,2 hPa 0,0 l/m 0,0 km/h (0 Bft) N 0,00 h 11,8 C 13,4 C 0,0 km/h (0 Bft)
29.08.2023 00:00 13,6 C 18,6 C 13,5 C 13,4 C 13,1 C 0,0 C 87 % 90 % 1009,1 hPa 0,0 l/m 0,0 km/h (0 Bft) N 0,00 h 11,5 C 13,1 C 0,0 km/h (0 Bft)
29.08.2023 01:00 13,1 C 18,5 C 12,9 C 12,9 C 12,5 C 0,0 C 88 % 90 % 1008,5 hPa 0,0 l/m 0,0 km/h (0 Bft) N 0,00 h 11,1 C 12,5 C 0,0 km/h (0 Bft)
29.08.2023 02:00 12,9 C 18,4 C 12,7 C 12,7 C 12,4 C 0,0 C 88 % 90 % 1008,2 hPa 0,7 l/m 0,0 km/h (0 Bft) N 0,00 h 10,9 C 12,4 C 0,0 km/h (0 Bft)
29.08.2023 03:00 12,6 C 18,3 C 12,5 C 12,5 C 12,2 C 0,0 C 88 % 90 % 1008,2 hPa 0,0 l/m 0,0 km/h (0 Bft) N 0,00 h 10,7 C 12,2 C 0,0 km/h (0 Bft)
29.08.2023 04:00 12,5 C 18,2 C 12,4 C 12,4 C 12,2 C 0,0 C 88 % 90 % 1007,7 hPa 0,7 l/m 0,0 km/h (0 Bft) N 0,00 h 10,5 C 12,2 C 0,0 km/h (0 Bft)
29.08.2023 05:00 12,3 C 18,1 C 12,3 C 12,2 C 12,1 C 0,0 C 88 % 90 % 1007,2 hPa 0,7 l/m 0,0 km/h (0 Bft) N 0,00 h 10,4 C 12,1 C 0,0 km/h (0 Bft)
29.08.2023 06:00 12,3 C 18,1 C 12,3 C 12,3 C 12,2 C 0,0 C 88 % 90 % 1007,5 hPa 1,4 l/m 0,0 km/h (0 Bft) N 0,00 h 10,3 C 12,2 C 0,0 km/h (0 Bft)
29.08.2023 07:00 12,3 C 18,1 C 12,7 C 12,6 C 12,6 C 0,4 C 88 % 90 % 1007,4 hPa 2,1 l/m 0,0 km/h (0 Bft) N 0,00 h 10,3 C 12,6 C 0,0 km/h (0 Bft)
29.08.2023 08:00 12,4 C 18,1 C 13,2 C 13,5 C 13,5 C 1,1 C 88 % 90 % 1007,0 hPa 0,7 l/m 0,0 km/h (0 Bft) N 0,00 h 10,5 C 13,5 C 0,0 km/h (0 Bft)
29.08.2023 09:00 12,6 C 18,1 C 13,4 C 13,9 C 13,9 C 1,3 C 88 % 90 % 1007,1 hPa 0,7 l/m 0,0 km/h (0 Bft) N 0,00 h 10,7 C 13,9 C 0,0 km/h (0 Bft)
29.08.2023 10:00 12,7 C 18,0 C 13,5 C 13,9 C 13,9 C 1,2 C 88 % 90 % 1007,1 hPa 0,0 l/m 0,0 km/h (0 Bft) N 0,00 h 10,8 C 13,9 C 0,0 km/h (0 Bft)
29.08.2023 11:00 13,1 C 18,0 C 14,1 C 14,8 C 14,8 C 1,8 C 88 % 90 % 1007,2 hPa 0,7 l/m 0,0 km/h (0 Bft) N 0,00 h 11,1 C 14,8 C 0,0 km/h (0 Bft)
29.08.2023 12:00 13,5 C 18,0 C 14,6 C 16,5 C 16,5 C 2,9 C 89 % 90 % 1007,2 hPa 0,0 l/m 0,0 km/h (0 Bft) N 0,47 h 11,7 C 16,5 C 0,0 km/h (0 Bft)
29.08.2023 13:00 13,3 C 18,1 C 14,5 C 16,0 C 16,0 C 2,7 C 88 % 90 % 1007,2 hPa 0,7 l/m 0,3 km/h (0 Bft) O-NO 0,08 h 11,5 C 16,0 C 0,8 km/h (0 Bft)
29.08.2023 14:00 13,4 C 18,1 C 14,5 C 15,1 C 15,1 C 1,6 C 88 % 90 % 1007,3 hPa 1,4 l/m 0,0 km/h (0 Bft) N 0,00 h 11,6 C 15,1 C 0,0 km/h (0 Bft)
29.08.2023 15:00 13,4 C 18,0 C 14,3 C 15,3 C 15,3 C 1,9 C 88 % 90 % 1007,4 hPa 0,0 l/m 0,5 km/h (0 Bft) N 0,00 h 11,5 C 15,3 C 1,4 km/h (1 Bft)
29.08.2023 16:00 13,5 C 18,1 C 14,4 C 16,7 C 16,7 C 3,2 C 88 % 90 % 1007,3 hPa 0,0 l/m 0,2 km/h (0 Bft) N 0,50 h 11,5 C 16,7 C 0,6 km/h (0 Bft)
29.08.2023 17:00 13,4 C 18,1 C 14,2 C 15,3 C 15,3 C 1,9 C 88 % 90 % 1007,0 hPa 0,0 l/m 0,1 km/h (0 Bft) N 0,00 h 11,5 C 15,3 C 0,7 km/h (0 Bft)
29.08.2023 18:00 13,1 C 18,1 C 13,7 C 14,4 C 14,4 C 1,3 C 88 % 90 % 1007,2 hPa 0,0 l/m 0,0 km/h (0 Bft) N 0,00 h 11,2 C 14,4 C 0,0 km/h (0 Bft)
29.08.2023 19:00 12,9 C 18,1 C 13,7 C 13,8 C 13,8 C 0,8 C 88 % 90 % 1007,7 hPa 0,0 l/m 0,0 km/h (0 Bft) N 0,42 h 11,0 C 13,8 C 0,0 km/h (0 Bft)
29.08.2023 20:00 12,8 C 18,1 C 13,6 C 13,4 C 13,4 C 0,7 C 88 % 90 % 1008,1 hPa 0,7 l/m 0,0 km/h (0 Bft) N 0,00 h 10,8 C 13,4 C 0,0 km/h (0 Bft)
29.08.2023 21:00 12,5 C 18,1 C 13,1 C 13,1 C 13,1 C 0,6 C 88 % 90 % 1008,3 hPa 0,0 l/m 0,1 km/h (0 Bft) N 0,00 h 10,5 C 13,1 C 0,0 km/h (0 Bft)
29.08.2023 22:00 12,1 C 18,0 C 13,0 C 12,8 C 12,8 C 0,7 C 88 % 90 % 1007,7 hPa 0,0 l/m 0,1 km/h (0 Bft) N 0,00 h 10,2 C 12,8 C 0,0 km/h (0 Bft)
29.08.2023 23:00 12,0 C 18,0 C 13,0 C 12,9 C 12,9 C 0,9 C 88 % 90 % 1008,0 hPa 0,0 l/m 0,0 km/h (0 Bft) N 0,00 h 10,1 C 12,9 C 0,0 km/h (0 Bft)
30.08.2023 00:00 12,1 C 17,9 C 13,1 C 13,0 C 13,0 C 0,9 C 88 % 90 % 1007,6 hPa 0,0 l/m 0,0 km/h (0 Bft) N 0,00 h 10,2 C 13,0 C 0,0 km/h (0 Bft)
30.08.2023 01:00 12,0 C 17,8 C 13,0 C 12,9 C 12,9 C 0,8 C 88 % 90 % 1007,2 hPa 0,0 l/m 0,0 km/h (0 Bft) N 0,00 h 10,1 C 12,9 C 0,0 km/h (0 Bft)
30.08.2023 02:00 11,9 C 17,8 C 13,0 C 12,8 C 12,8 C 0,9 C 88 % 90 % 1006,9 hPa 0,0 l/m 0,0 km/h (0 Bft) N 0,00 h 10,0 C 12,8 C 0,0 km/h (0 Bft)
30.08.2023 03:00 11,9 C 17,7 C 13,0 C 12,9 C 12,9 C 1,0 C 88 % 90 % 1006,8 hPa 0,0 l/m 0,0 km/h (0 Bft) N 0,00 h 10,0 C 12,9 C 0,0 km/h (0 Bft)
30.08.2023 04:00 11,6 C 17,7 C 12,6 C 12,3 C 12,3 C 0,7 C 88 % 90 % 1006,6 hPa 0,0 l/m 0,0 km/h (0 Bft) N 0,00 h 9,7 C 12,3 C 0,0 km/h (0 Bft)
30.08.2023 05:00 11,5 C 17,6 C 12,7 C 12,5 C 12,5 C 1,0 C 89 % 90 % 1006,5 hPa 0,0 l/m 0,0 km/h (0 Bft) N 0,00 h 9,7 C 12,5 C 0,0 km/h (0 Bft)
30.08.2023 06:00 11,6 C 17,6 C 12,8 C 12,8 C 12,8 C 1,2 C 89 % 90 % 1006,7 hPa 0,0 l/m 0,0 km/h (0 Bft) N 0,47 h 9,7 C 12,8 C 0,3 km/h (0 Bft)
30.08.2023 07:00 11,8 C 17,6 C 13,2 C 13,2 C 13,2 C 1,4 C 89 % 90 % 1006,7 hPa 0,0 l/m 0,0 km/h (0 Bft) N 0,25 h 10,1 C 13,2 C 0,2 km/h (0 Bft)
30.08.2023 08:00 12,3 C 17,6 C 13,5 C 14,0 C 14,0 C 1,7 C 89 % 90 % 1006,8 hPa 0,0 l/m 0,1 km/h (0 Bft) N 0,00 h 10,5 C 14,0 C 0,3 km/h (0 Bft)
30.08.2023 09:00 13,0 C 17,5 C 14,0 C 16,5 C 16,5 C 3,5 C 89 % 90 % 1006,9 hPa 0,0 l/m 0,0 km/h (0 Bft) N 0,67 h 11,2 C 16,5 C 0,1 km/h (0 Bft)
30.08.2023 10:00 13,9 C 17,2 C 14,9 C 18,9 C 18,9 C 5,0 C 89 % 90 % 1006,6 hPa 0,0 l/m 0,0 km/h (0 Bft) N 1,00 h 12,1 C 18,9 C 0,0 km/h (0 Bft)
30.08.2023 11:00 14,7 C 17,0 C 16,4 C 21,3 C 21,3 C 6,5 C 89 % 90 % 1006,1 hPa 0,0 l/m 0,1 km/h (0 Bft) N 1,00 h 12,9 C 21,3 C 0,7 km/h (0 Bft)
30.08.2023 12:00 16,8 C 16,9 C 16,7 C 23,1 C 23,1 C 6,3 C 86 % 82 % 1006,1 hPa 0,0 l/m 0,0 km/h (0 Bft) N 1,00 h 14,4 C 23,1 C 0,0 km/h (0 Bft)
30.08.2023 13:00 20,0 C 17,0 C 17,6 C 26,8 C 26,8 C 6,9 C 71 % 72 % 1005,8 hPa 0,0 l/m 0,0 km/h (0 Bft) N 1,00 h 14,5 C 26,8 C 0,0 km/h (0 Bft)
30.08.2023 14:00 21,7 C 17,0 C 19,8 C 26,6 C 26,6 C 4,9 C 61 % 67 % 1005,4 hPa 0,0 l/m 0,0 km/h (0 Bft) N 0,75 h 13,9 C 26,6 C 0,0 km/h (0 Bft)
30.08.2023 15:00 21,0 C 17,1 C 19,5 C 24,4 C 24,4 C 3,4 C 60 % 65 % 1005,4 hPa 0,0 l/m 0,0 km/h (0 Bft) N 0,42 h 13,0 C 24,4 C 0,0 km/h (0 Bft)
30.08.2023 16:00 21,1 C 17,2 C 19,8 C 23,4 C 23,4 C 2,4 C 60 % 66 % 1005,1 hPa 0,0 l/m 0,0 km/h (0 Bft) N 0,00 h 13,1 C 23,4 C 0,0 km/h (0 Bft)
30.08.2023 17:00 20,8 C 17,3 C 19,2 C 21,6 C 21,6 C 0,8 C 61 % 67 % 1005,0 hPa 0,0 l/m 0,0 km/h (0 Bft) N 0,00 h 13,0 C 21,6 C 0,0 km/h (0 Bft)
30.08.2023 18:00 20,1 C 17,4 C 18,6 C 20,6 C 20,6 C 0,5 C 65 % 70 % 1005,1 hPa 0,0 l/m 0,0 km/h (0 Bft) N 0,00 h 13,4 C 20,6 C 0,0 km/h (0 Bft)
30.08.2023 19:00 18,5 C 17,5 C 16,8 C 18,1 C 17,4 C 0,0 C 69 % 75 % 1005,0 hPa 0,0 l/m 0,0 km/h (0 Bft) N 0,00 h 12,6 C 17,4 C 0,0 km/h (0 Bft)
30.08.2023 20:00 16,5 C 17,8 C 15,2 C 16,0 C 15,0 C 0,0 C 75 % 78 % 1005,1 hPa 0,0 l/m 0,0 km/h (0 Bft) N 0,00 h 12,0 C 15,0 C 0,0 km/h (0 Bft)
30.08.2023 21:00 15,6 C 17,7 C 15,2 C 15,4 C 15,1 C 0,0 C 80 % 81 % 1005,3 hPa 0,0 l/m 0,0 km/h (0 Bft) N 0,00 h 12,1 C 15,1 C 0,0 km/h (0 Bft)
30.08.2023 22:00 15,7 C 17,5 C 15,3 C 15,8 C 15,7 C 0,1 C 80 % 77 % 1005,3 hPa 0,0 l/m 0,0 km/h (0 Bft) N 0,00 h 12,2 C 15,7 C 0,0 km/h (0 Bft)
30.08.2023 23:00 15,4 C 17,5 C 14,5 C 15,2 C 14,6 C 0,0 C 78 % 76 % 1005,2 hPa 0,0 l/m 0,0 km/h (0 Bft) N 0,00 h 11,6 C 14,6 C 0,0 km/h (0 Bft)
31.08.2023 00:00 15,3 C 17,3 C 14,9 C 15,2 C 15,1 C 0,0 C 78 % 75 % 1005,1 hPa 0,0 l/m 0,0 km/h (0 Bft) N 0,00 h 11,4 C 15,1 C 0,0 km/h (0 Bft)
31.08.2023 01:00 15,4 C 17,2 C 15,1 C 15,4 C 15,3 C 0,0 C 76 % 70 % 1005,7 hPa 0,0 l/m 0,0 km/h (0 Bft) N 0,00 h 11,2 C 15,3 C 0,3 km/h (0 Bft)
31.08.2023 02:00 14,3 C 17,3 C 13,7 C 14,0 C 13,3 C 0,0 C 77 % 75 % 1006,1 hPa 0,0 l/m 0,0 km/h (0 Bft) N 0,00 h 10,4 C 13,3 C 0,0 km/h (0 Bft)
31.08.2023 03:00 13,4 C 17,5 C 12,8 C 12,9 C 12,0 C 0,0 C 82 % 81 % 1006,3 hPa 0,0 l/m 0,0 km/h (0 Bft) N 0,00 h 10,3 C 12,0 C 0,0 km/h (0 Bft)
31.08.2023 04:00 12,8 C 17,4 C 12,2 C 12,4 C 11,6 C 0,0 C 84 % 82 % 1006,3 hPa 0,0 l/m 0,2 km/h (0 Bft) N 0,00 h 10,3 C 11,6 C 1,1 km/h (1 Bft)
31.08.2023 05:00 12,4 C 17,3 C 12,0 C 12,1 C 11,5 C 0,0 C 86 % 83 % 1007,0 hPa 0,0 l/m 0,5 km/h (0 Bft) N 0,00 h 10,1 C 11,5 C 1,4 km/h (1 Bft)
31.08.2023 06:00 12,3 C 17,1 C 12,2 C 12,2 C 12,0 C 0,0 C 86 % 82 % 1007,4 hPa 0,0 l/m 0,1 km/h (0 Bft) N 0,00 h 10,1 C 12,0 C 0,0 km/h (0 Bft)
31.08.2023 07:00 12,7 C 16,9 C 12,7 C 13,2 C 13,2 C 0,5 C 86 % 81 % 1008,8 hPa 0,0 l/m 0,2 km/h (0 Bft) N 0,00 h 10,4 C 13,2 C 0,1 km/h (0 Bft)
31.08.2023 08:00 13,8 C 16,9 C 13,2 C 17,4 C 17,4 C 3,6 C 86 % 80 % 1009,1 hPa 0,0 l/m 0,1 km/h (0 Bft) N 0,47 h 11,4 C 17,4 C 0,2 km/h (0 Bft)
31.08.2023 09:00 15,0 C 16,7 C 14,3 C 17,6 C 17,6 C 2,7 C 81 % 77 % 1009,2 hPa 0,0 l/m 0,0 km/h (0 Bft) N 0,25 h 11,7 C 17,6 C 0,0 km/h (0 Bft)
31.08.2023 10:00 15,5 C 16,6 C 15,3 C 17,8 C 17,8 C 2,3 C 75 % 69 % 1009,5 hPa 0,0 l/m 0,0 km/h (0 Bft) N 0,00 h 11,2 C 17,8 C 0,0 km/h (0 Bft)
31.08.2023 11:00 16,4 C 16,5 C 16,8 C 18,6 C 18,6 C 2,1 C 68 % 59 % 1009,4 hPa 0,0 l/m 0,0 km/h (0 Bft) N 0,00 h 10,6 C 18,6 C 0,0 km/h (0 Bft)
31.08.2023 12:00 16,0 C 16,5 C 16,1 C 18,6 C 18,6 C 2,5 C 70 % 61 % 1009,7 hPa 0,0 l/m 0,2 km/h (0 Bft) N 0,22 h 10,5 C 18,6 C 0,0 km/h (0 Bft)
31.08.2023 13:00 17,3 C 16,5 C 16,1 C 20,9 C 20,9 C 3,6 C 70 % 66 % 1009,7 hPa 0,0 l/m 0,0 km/h (0 Bft) N 0,43 h 11,7 C 20,9 C 0,0 km/h (0 Bft)
31.08.2023 14:00 17,4 C 16,5 C 16,3 C 19,5 C 19,5 C 2,1 C 69 % 69 % 1009,6 hPa 0,0 l/m 0,0 km/h (0 Bft) N 0,23 h 11,7 C 19,5 C 0,9 km/h (0 Bft)
31.08.2023 15:00 18,0 C 16,5 C 17,6 C 22,1 C 22,1 C 4,1 C 61 % 58 % 1009,8 hPa 0,0 l/m 0,0 km/h (0 Bft) N 0,58 h 10,5 C 22,1 C 0,0 km/h (0 Bft)
31.08.2023 16:00 19,5 C 16,5 C 19,3 C 22,4 C 22,4 C 2,9 C 55 % 49 % 1009,8 hPa 0,0 l/m 0,2 km/h (0 Bft) N 0,33 h 10,2 C 22,4 C 1,1 km/h (0 Bft)
31.08.2023 17:00 18,8 C 16,5 C 18,1 C 19,7 C 19,7 C 0,9 C 57 % 52 % 1010,3 hPa 0,0 l/m 0,0 km/h (0 Bft) N 0,00 h 10,1 C 19,7 C 0,0 km/h (0 Bft)
31.08.2023 18:00 18,7 C 16,5 C 17,8 C 19,1 C 19,1 C 0,4 C 58 % 54 % 1010,3 hPa 0,0 l/m 0,0 km/h (0 Bft) N 0,00 h 10,1 C 19,1 C 0,0 km/h (0 Bft)
31.08.2023 19:00 17,7 C 16,7 C 16,7 C 18,7 C 18,7 C 1,0 C 61 % 56 % 1010,5 hPa 0,0 l/m 0,0 km/h (0 Bft) N 0,47 h 10,0 C 18,7 C 0,0 km/h (0 Bft)
31.08.2023 20:00 16,0 C 16,7 C 15,2 C 18,7 C 18,7 C 2,7 C 67 % 60 % 1010,8 hPa 0,0 l/m 0,0 km/h (0 Bft) N 0,00 h 9,8 C 18,7 C 0,0 km/h (0 Bft)
31.08.2023 21:00 14,9 C 16,7 C 14,3 C 16,9 C 16,7 C 2,1 C 71 % 63 % 1011,2 hPa 0,0 l/m 0,0 km/h (0 Bft) N 0,00 h 9,5 C 16,7 C 0,0 km/h (0 Bft)
31.08.2023 22:00 14,0 C 16,8 C 13,4 C 13,7 C 13,2 C 0,0 C 74 % 68 % 1012,9 hPa 0,7 l/m 0,1 km/h (0 Bft) N 0,00 h 9,4 C 13,2 C 0,0 km/h (0 Bft)
31.08.2023 23:00 12,5 C 17,1 C 11,7 C 12,1 C 11,3 C 0,0 C 80 % 83 % 1012,6 hPa 0,0 l/m 0,0 km/h (0 Bft) N 0,00 h 9,2 C 11,3 C 0,0 km/h (0 Bft)
01.09.2023 00:00 11,7 C 17,1 C 11,1 C 11,3 C 10,6 C 0,0 C 83 % 89 % 1012,8 hPa 0,0 l/m 0,0 km/h (0 Bft) N 0,00 h 8,9 C 10,6 C 0,0 km/h (0 Bft)
01.09.2023 01:00 11,8 C 17,0 C 11,5 C 11,6 C 11,3 C 0,0 C 85 % 90 % 1012,9 hPa 0,0 l/m 0,0 km/h (0 Bft) N 0,00 h 9,4 C 11,3 C 0,0 km/h (0 Bft)
01.09.2023 02:00 11,8 C 16,9 C 11,5 C 11,6 C 11,2 C 0,0 C 86 % 90 % 1012,9 hPa 0,0 l/m 0,0 km/h (0 Bft) N 0,00 h 9,6 C 11,2 C 0,0 km/h (0 Bft)
01.09.2023 03:00 11,2 C 16,9 C 10,7 C 11,0 C 10,5 C 0,0 C 86 % 90 % 1012,7 hPa 0,0 l/m 0,0 km/h (0 Bft) N 0,00 h 9,0 C 10,5 C 0,0 km/h (0 Bft)
01.09.2023 04:00 10,6 C 16,8 C 10,4 C 10,4 C 10,1 C 0,0 C 87 % 90 % 1012,8 hPa 0,0 l/m 0,0 km/h (0 Bft) N 0,00 h 8,5 C 10,1 C 0,0 km/h (0 Bft)
01.09.2023 05:00 10,2 C 16,7 C 10,1 C 10,0 C 9,8 C 0,0 C 87 % 90 % 1012,9 hPa 0,0 l/m 0,0 km/h (0 Bft) N 0,00 h 8,1 C 9,8 C 0,0 km/h (0 Bft)
01.09.2023 06:00 10,0 C 16,6 C 10,4 C 10,1 C 10,1 C 0,1 C 87 % 90 % 1013,3 hPa 0,0 l/m 0,0 km/h (0 Bft) N 0,00 h 7,9 C 10,1 C 0,0 km/h (0 Bft)
01.09.2023 07:00 10,2 C 16,5 C 10,9 C 10,9 C 10,9 C 0,7 C 87 % 90 % 1013,4 hPa 0,0 l/m 0,0 km/h (0 Bft) N 0,00 h 8,1 C 10,9 C 0,0 km/h (0 Bft)
01.09.2023 08:00 11,8 C 16,3 C 11,9 C 19,8 C 19,8 C 8,0 C 87 % 90 % 1013,6 hPa 0,0 l/m 0,0 km/h (0 Bft) N 0,92 h 9,7 C 19,8 C 0,4 km/h (0 Bft)
01.09.2023 09:00 14,7 C 16,1 C 13,7 C 18,5 C 18,5 C 3,8 C 86 % 90 % 1013,7 hPa 0,0 l/m 1,1 km/h (0 Bft) S-SO 0,50 h 12,4 C 18,5 C 2,9 km/h (1 Bft)
01.09.2023 10:00 17,0 C 16,1 C 15,7 C 19,7 C 19,7 C 2,7 C 79 % 83 % 1013,8 hPa 0,0 l/m 0,2 km/h (0 Bft) N 0,00 h 13,4 C 19,7 C 0,4 km/h (0 Bft)
01.09.2023 11:00 18,0 C 16,1 C 17,1 C 20,9 C 20,9 C 2,8 C 75 % 78 % 1013,7 hPa 0,0 l/m 0,0 km/h (0 Bft) N 0,00 h 13,5 C 20,9 C 0,0 km/h (0 Bft)
01.09.2023 12:00 19,1 C 16,3 C 17,9 C 22,2 C 22,2 C 3,1 C 72 % 77 % 1013,5 hPa 0,0 l/m 0,0 km/h (0 Bft) N 0,25 h 13,9 C 22,2 C 0,0 km/h (0 Bft)
01.09.2023 13:00 20,0 C 16,4 C 18,7 C 23,2 C 23,2 C 3,2 C 70 % 76 % 1013,4 hPa 0,0 l/m 0,0 km/h (0 Bft) N 0,33 h 14,3 C 23,2 C 0,2 km/h (0 Bft)
01.09.2023 14:00 21,2 C 16,5 C 20,1 C 24,6 C 24,6 C 3,4 C 65 % 70 % 1013,3 hPa 0,0 l/m 0,0 km/h (0 Bft) N 0,58 h 14,3 C 24,6 C 0,2 km/h (0 Bft)
01.09.2023 15:00 20,5 C 16,6 C 19,8 C 22,6 C 22,6 C 2,1 C 67 % 67 % 1013,4 hPa 0,0 l/m 0,0 km/h (0 Bft) N 0,08 h 14,1 C 22,6 C 0,0 km/h (0 Bft)
01.09.2023 16:00 19,6 C 16,8 C 19,0 C 20,3 C 20,3 C 0,8 C 71 % 70 % 1013,2 hPa 0,0 l/m 0,0 km/h (0 Bft) N 0,00 h 14,1 C 20,3 C 0,0 km/h (0 Bft)
01.09.2023 17:00 19,5 C 16,9 C 18,8 C 20,1 C 20,1 C 0,6 C 73 % 73 % 1013,4 hPa 0,0 l/m 0,0 km/h (0 Bft) N 0,00 h 14,5 C 20,1 C 0,0 km/h (0 Bft)
01.09.2023 18:00 18,7 C 17,4 C 17,1 C 18,1 C 17,0 C 0,0 C 77 % 83 % 1013,6 hPa 1,4 l/m 0,0 km/h (0 Bft) N 0,00 h 14,5 C 17,0 C 0,0 km/h (0 Bft)
01.09.2023 19:00 17,3 C 17,6 C 16,2 C 16,9 C 16,2 C 0,0 C 83 % 90 % 1013,5 hPa 2,1 l/m 0,0 km/h (0 Bft) N 0,00 h 14,3 C 16,2 C 0,0 km/h (0 Bft)
01.09.2023 20:00 16,6 C 17,8 C 15,8 C 16,3 C 15,9 C 0,0 C 85 % 90 % 1013,0 hPa 0,0 l/m 0,0 km/h (0 Bft) N 0,00 h 14,1 C 15,9 C 0,0 km/h (0 Bft)
01.09.2023 21:00 16,2 C 17,9 C 15,8 C 16,1 C 15,8 C 0,0 C 86 % 90 % 1013,6 hPa 0,0 l/m 0,0 km/h (0 Bft) N 0,00 h 14,0 C 15,8 C 0,0 km/h (0 Bft)
01.09.2023 22:00 16,0 C 17,9 C 15,8 C 15,9 C 15,9 C 0,0 C 87 % 90 % 1013,8 hPa 0,0 l/m 0,0 km/h (0 Bft) N 0,00 h 13,8 C 15,9 C 0,0 km/h (0 Bft)
01.09.2023 23:00 15,8 C 17,9 C 15,8 C 15,9 C 15,8 C 0,0 C 87 % 90 % 1013,8 hPa 0,0 l/m 0,0 km/h (0 Bft) N 0,00 h 13,7 C 15,8 C 0,0 km/h (0 Bft)
02.09.2023 00:00 15,6 C 17,9 C 15,7 C 15,8 C 15,8 C 0,2 C 87 % 90 % 1014,1 hPa 0,0 l/m 0,0 km/h (0 Bft) N 0,00 h 13,5 C 15,8 C 0,0 km/h (0 Bft)
02.09.2023 01:00 15,4 C 17,9 C 15,6 C 15,6 C 15,6 C 0,2 C 87 % 90 % 1014,1 hPa 0,0 l/m 0,0 km/h (0 Bft) N 0,00 h 13,3 C 15,6 C 0,0 km/h (0 Bft)
02.09.2023 02:00 15,2 C 17,9 C 15,5 C 15,5 C 15,5 C 0,3 C 87 % 90 % 1014,2 hPa 0,0 l/m 0,0 km/h (0 Bft) N 0,00 h 13,1 C 15,5 C 0,0 km/h (0 Bft)
02.09.2023 03:00 14,8 C 17,8 C 14,9 C 14,9 C 14,8 C 0,1 C 87 % 90 % 1014,2 hPa 0,0 l/m 0,0 km/h (0 Bft) N 0,00 h 12,7 C 14,8 C 0,0 km/h (0 Bft)
02.09.2023 04:00 14,4 C 17,8 C 14,7 C 14,7 C 14,7 C 0,2 C 87 % 90 % 1014,6 hPa 0,0 l/m 0,0 km/h (0 Bft) N 0,00 h 12,3 C 14,7 C 0,0 km/h (0 Bft)
02.09.2023 05:00 13,9 C 17,7 C 14,2 C 14,1 C 14,1 C 0,3 C 87 % 90 % 1015,0 hPa 0,0 l/m 0,0 km/h (0 Bft) N 0,00 h 11,7 C 14,1 C 0,0 km/h (0 Bft)
02.09.2023 06:00 13,5 C 17,7 C 14,3 C 14,3 C 14,3 C 0,8 C 87 % 90 % 1015,4 hPa 0,0 l/m 0,0 km/h (0 Bft) N 0,42 h 11,4 C 14,3 C 0,0 km/h (0 Bft)
02.09.2023 07:00 13,7 C 17,7 C 14,9 C 15,1 C 15,1 C 1,4 C 87 % 90 % 1015,7 hPa 0,0 l/m 0,0 km/h (0 Bft) N 0,50 h 11,6 C 15,1 C 0,0 km/h (0 Bft)
02.09.2023 08:00 14,4 C 17,7 C 15,6 C 16,1 C 16,1 C 1,7 C 87 % 90 % 1016,2 hPa 0,0 l/m 0,0 km/h (0 Bft) N 0,00 h 12,2 C 16,1 C 0,0 km/h (0 Bft)
02.09.2023 09:00 15,0 C 17,7 C 16,2 C 17,5 C 17,5 C 2,5 C 87 % 90 % 1016,8 hPa 0,0 l/m 0,0 km/h (0 Bft) N 0,00 h 12,9 C 17,5 C 0,0 km/h (0 Bft)
02.09.2023 10:00 15,9 C 17,8 C 16,9 C 19,9 C 19,9 C 4,0 C 88 % 90 % 1017,3 hPa 0,0 l/m 0,0 km/h (0 Bft) N 0,73 h 13,9 C 19,9 C 0,0 km/h (0 Bft)
02.09.2023 11:00 16,9 C 17,5 C 17,7 C 23,1 C 23,1 C 6,1 C 87 % 90 % 1018,0 hPa 0,0 l/m 0,0 km/h (0 Bft) N 1,00 h 14,8 C 23,1 C 0,0 km/h (0 Bft)
02.09.2023 12:00 18,9 C 17,3 C 18,0 C 24,5 C 24,5 C 5,6 C 83 % 90 % 1018,5 hPa 0,0 l/m 0,0 km/h (0 Bft) N 1,00 h 16,0 C 24,5 C 0,0 km/h (0 Bft)
02.09.2023 13:00 20,9 C 17,3 C 18,7 C 26,8 C 26,8 C 5,9 C 74 % 88 % 1018,6 hPa 0,0 l/m 0,0 km/h (0 Bft) N 1,00 h 16,0 C 26,8 C 0,0 km/h (0 Bft)
02.09.2023 14:00 21,1 C 17,4 C 18,8 C 26,8 C 26,8 C 5,7 C 71 % 86 % 1018,6 hPa 0,0 l/m 0,0 km/h (0 Bft) N 1,00 h 15,7 C 26,8 C 0,0 km/h (0 Bft)
02.09.2023 15:00 21,8 C 17,5 C 19,5 C 26,8 C 26,8 C 5,0 C 70 % 86 % 1018,5 hPa 0,0 l/m 0,0 km/h (0 Bft) N 1,00 h 16,1 C 26,8 C 0,0 km/h (0 Bft)
02.09.2023 16:00 21,9 C 17,6 C 20,2 C 26,8 C 26,8 C 4,9 C 69 % 83 % 1018,7 hPa 0,0 l/m 0,0 km/h (0 Bft) N 1,00 h 16,0 C 26,8 C 0,0 km/h (0 Bft)
02.09.2023 17:00 21,7 C 17,6 C 20,1 C 26,8 C 26,8 C 5,1 C 70 % 82 % 1019,1 hPa 0,0 l/m 0,0 km/h (0 Bft) N 1,00 h 15,9 C 26,8 C 0,0 km/h (0 Bft)
02.09.2023 18:00 21,2 C 17,8 C 19,4 C 26,8 C 26,8 C 5,6 C 71 % 80 % 1019,2 hPa 0,0 l/m 0,0 km/h (0 Bft) N 1,00 h 15,7 C 26,8 C 0,0 km/h (0 Bft)
02.09.2023 19:00 19,6 C 18,1 C 18,2 C 26,8 C 26,8 C 7,2 C 77 % 83 % 1019,2 hPa 0,0 l/m 0,0 km/h (0 Bft) N 0,75 h 15,4 C 26,8 C 0,0 km/h (0 Bft)
02.09.2023 20:00 17,9 C 18,2 C 16,8 C 26,8 C 26,8 C 8,9 C 81 % 88 % 1019,8 hPa 0,0 l/m 0,0 km/h (0 Bft) N 0,00 h 14,5 C 26,8 C 0,0 km/h (0 Bft)
02.09.2023 21:00 16,9 C 18,3 C 16,0 C 26,8 C 26,8 C 9,9 C 84 % 90 % 1020,0 hPa 0,0 l/m 0,0 km/h (0 Bft) N 0,00 h 14,1 C 26,8 C 0,0 km/h (0 Bft)
02.09.2023 22:00 16,0 C 18,2 C 15,2 C 26,8 C 26,8 C 10,8 C 85 % 90 % 1020,2 hPa 0,0 l/m 0,0 km/h (0 Bft) N 0,00 h 13,5 C 26,8 C 0,0 km/h (0 Bft)
02.09.2023 23:00 15,1 C 18,2 C 14,4 C 26,8 C 26,8 C 11,7 C 86 % 90 % 1019,9 hPa 0,0 l/m 0,0 km/h (0 Bft) N 0,00 h 12,8 C 26,8 C 0,0 km/h (0 Bft)
03.09.2023 00:00 14,3 C 18,1 C 14,0 C 26,8 C 26,8 C 12,5 C 87 % 90 % 1020,2 hPa 0,0 l/m 0,0 km/h (0 Bft) N 0,00 h 12,2 C 26,8 C 0,0 km/h (0 Bft)
03.09.2023 01:00 13,9 C 18,1 C 13,6 C 26,8 C 26,8 C 12,9 C 87 % 90 % 1020,2 hPa 0,0 l/m 0,0 km/h (0 Bft) N 0,00 h 11,8 C 26,8 C 0,0 km/h (0 Bft)
03.09.2023 02:00 13,4 C 18,0 C 13,3 C 26,8 C 26,8 C 13,4 C 87 % 90 % 1020,1 hPa 0,0 l/m 0,0 km/h (0 Bft) N 0,00 h 11,3 C 26,8 C 0,0 km/h (0 Bft)
03.09.2023 03:00 13,1 C 17,9 C 13,0 C 26,8 C 26,8 C 13,7 C 88 % 90 % 1020,1 hPa 0,0 l/m 0,0 km/h (0 Bft) N 0,00 h 11,1 C 26,8 C 0,0 km/h (0 Bft)
03.09.2023 04:00 12,8 C 17,8 C 12,9 C 26,8 C 26,8 C 14,0 C 88 % 90 % 1020,3 hPa 0,0 l/m 0,0 km/h (0 Bft) N 0,00 h 10,9 C 26,8 C 0,0 km/h (0 Bft)
03.09.2023 05:00 12,5 C 17,7 C 12,7 C 26,8 C 26,8 C 14,2 C 88 % 90 % 1020,3 hPa 0,0 l/m 0,0 km/h (0 Bft) N 0,00 h 10,6 C 26,8 C 0,0 km/h (0 Bft)
03.09.2023 06:00 12,2 C 17,6 C 12,5 C 26,8 C 26,8 C 14,6 C 87 % 90 % 1020,4 hPa 0,0 l/m 0,0 km/h (0 Bft) N 0,33 h 10,2 C 26,8 C 0,0 km/h (0 Bft)
03.09.2023 07:00 12,6 C 17,6 C 13,8 C 26,8 C 26,8 C 14,2 C 88 % 90 % 1021,2 hPa 0,0 l/m 0,0 km/h (0 Bft) N 1,00 h 10,6 C 26,8 C 0,0 km/h (0 Bft)
03.09.2023 08:00 13,7 C 17,5 C 15,2 C 26,8 C 26,8 C 13,1 C 88 % 90 % 1021,8 hPa 0,0 l/m 0,0 km/h (0 Bft) N 1,00 h 11,7 C 26,8 C 0,0 km/h (0 Bft)
03.09.2023 09:00 14,6 C 17,5 C 16,4 C 26,8 C 26,8 C 12,2 C 88 % 90 % 1023,0 hPa 0,0 l/m 0,0 km/h (0 Bft) N 1,00 h 12,6 C 26,8 C 0,0 km/h (0 Bft)
03.09.2023 10:00 15,3 C 17,3 C 17,1 C 26,8 C 26,8 C 11,5 C 87 % 88 % 1023,2 hPa 0,0 l/m 0,0 km/h (0 Bft) N 1,00 h 13,2 C 26,8 C 0,0 km/h (0 Bft)
03.09.2023 11:00 18,3 C 17,1 C 18,9 C 26,8 C 26,8 C 8,5 C 83 % 76 % 1023,5 hPa 0,0 l/m 0,0 km/h (0 Bft) N 1,00 h 15,4 C 26,8 C 0,0 km/h (0 Bft)
03.09.2023 12:00 19,3 C 17,1 C 19,1 C 26,8 C 26,8 C 7,5 C 75 % 70 % 1023,5 hPa 0,0 l/m 0,0 km/h (0 Bft) N 1,00 h 14,8 C 26,8 C 0,0 km/h (0 Bft)
03.09.2023 13:00 20,6 C 17,2 C 19,6 C 26,8 C 26,8 C 6,2 C 71 % 69 % 1023,5 hPa 0,0 l/m 0,0 km/h (0 Bft) N 1,00 h 15,2 C 26,8 C 0,0 km/h (0 Bft)
03.09.2023 14:00 21,1 C 17,2 C 20,3 C 26,8 C 26,8 C 5,7 C 68 % 65 % 1024,0 hPa 0,0 l/m 0,0 km/h (0 Bft) N 1,00 h 14,9 C 26,8 C 0,0 km/h (0 Bft)
03.09.2023 15:00 20,6 C 17,3 C 20,1 C 26,8 C 26,8 C 6,2 C 67 % 61 % 1024,1 hPa 0,0 l/m 0,0 km/h (0 Bft) N 1,00 h 14,2 C 26,8 C 0,0 km/h (0 Bft)
03.09.2023 16:00 20,5 C 17,4 C 20,1 C 26,8 C 26,8 C 6,3 C 63 % 56 % 1024,5 hPa 0,0 l/m 0,0 km/h (0 Bft) N 1,00 h 13,3 C 26,8 C 0,0 km/h (0 Bft)
03.09.2023 17:00 20,4 C 17,4 C 19,9 C 26,8 C 26,8 C 6,4 C 61 % 55 % 1024,1 hPa 0,0 l/m 0,0 km/h (0 Bft) N 1,00 h 12,7 C 26,8 C 0,0 km/h (0 Bft)
03.09.2023 18:00 19,7 C 17,4 C 19,1 C 26,8 C 26,8 C 7,1 C 63 % 57 % 1024,2 hPa 0,0 l/m 0,0 km/h (0 Bft) N 1,00 h 12,4 C 26,8 C 0,0 km/h (0 Bft)
03.09.2023 19:00 18,7 C 17,5 C 17,5 C 26,8 C 26,8 C 8,1 C 66 % 65 % 1024,5 hPa 0,0 l/m 0,0 km/h (0 Bft) N 0,75 h 12,1 C 26,8 C 0,0 km/h (0 Bft)
03.09.2023 20:00 16,8 C 17,6 C 15,5 C 26,8 C 26,8 C 10,0 C 73 % 73 % 1024,8 hPa 0,0 l/m 0,0 km/h (0 Bft) N 0,00 h 11,9 C 26,8 C 0,0 km/h (0 Bft)
03.09.2023 21:00 15,1 C 17,8 C 14,2 C 26,8 C 26,8 C 11,7 C 78 % 78 % 1025,2 hPa 0,0 l/m 0,0 km/h (0 Bft) N 0,00 h 11,3 C 26,8 C 0,0 km/h (0 Bft)
03.09.2023 22:00 13,8 C 17,8 C 13,1 C 26,8 C 26,8 C 13,0 C 82 % 81 % 1025,5 hPa 0,0 l/m 0,0 km/h (0 Bft) N 0,00 h 10,7 C 26,8 C 0,0 km/h (0 Bft)
03.09.2023 23:00 12,8 C 17,7 C 12,1 C 26,8 C 26,8 C 14,0 C 83 % 83 % 1025,3 hPa 0,0 l/m 0,0 km/h (0 Bft) N 0,00 h 10,0 C 26,8 C 0,0 km/h (0 Bft)
Min-Datum _ 01.09.23 01.09.23 01.09.23 01.09.23 01.09.23 28.08.23 31.08.23 31.08.23 30.08.23 - 28.08.23 - - 01.09.23 01.09.23 28.08.23
_ Min-Zeit 05:55 10:11 05:05 05:21 05:15 00:00 16:15 16:25 17:40 - 00:00 - - 05:55 05:15 00:00
Minimum _ 10,0 C 16,0 C 10,0 C 10,0 C 9,6 C 0,0 C 54 % 47 % 1004,9 hPa - 0,0 km/h (0 Bft) - - 7,9 C 9,6 C 0,0 km/h (0 Bft)
Max-Datum _ 30.08.23 28.08.23 30.08.23 30.08.23 30.08.23 03.09.23 29.08.23 28.08.23 03.09.23 29.08.23 01.09.23 - 02.09.23 02.09.23 30.08.23 31.08.23
_ Max-Zeit 14:25 00:00 14:15 14:20 14:20 06:30 12:26 04:50 22:26 07:00 09:45 - 10:27 12:26 14:20 16:35
Maximum _ 22,5 C 19,9 C 20,7 C 28,9 C 28,9 C 14,7 C 89 % 90 % 1025,6 hPa 2,1 l/m 2,4 km/h
S-SO (1 Bft)
- 0,27 h 16,6 C 28,9 C 10,0 km/h
N (2 Bft)
Durchschnitt _ 15,4 C 17,7 C 15,1 C 18,3 C 18,2 C 3,1 C 81 % 82 % 1012,3 hPa #15,8 l/m 0,0 km/h (0 Bft) S-SO #37:09 h 11,9 C 18,2 C 0,1 km/h (0 Bft)
2023 www.wetterstation-wechselburg.de